VOE3595 LPPT-LEAS
Flight info
| Callsign | VOE3595 |
|---|---|
| Flight time | 0h 59m |
| Altitude | 34000 |
| Route | IXIDA DCT TOSDI DCT ZMR DCT VETAN DCT OMESI/N0378F240 M30 XONDA |
| Aircraft | A320/M-SDFGHIJ1RWY/LB1 |
Departure
| Time | 2026-04-16 13:13 |
|---|---|
| Airport | Lisbon Humberto Delgado Airport (LPPT) |
Arrival
| Time | 2026-04-16 14:13 |
|---|---|
| Airport | Asturias Airport (LEAS) |
| Time | Latitude | Longitude | Altitude | Speed | Heading |
|---|---|---|---|---|---|
| 2026-04-16 12:48 | 38.76441 | -9.13804 | 348 ft | 0 kts | 168° |
| 2026-04-16 13:05 | 38.76445 | -9.13805 | 347 ft | 3 kts | 168° |
| 2026-04-16 13:05 | 38.76472 | -9.13811 | 348 ft | 4 kts | 174° |
| 2026-04-16 13:05 | 38.76499 | -9.13813 | 347 ft | 4 kts | 185° |
| 2026-04-16 13:06 | 38.76524 | -9.13805 | 347 ft | 4 kts | 225° |
| 2026-04-16 13:06 | 38.76531 | -9.13790 | 347 ft | 1 kts | 258° |
| 2026-04-16 13:06 | 38.76531 | -9.13788 | 347 ft | 0 kts | 258° |
| 2026-04-16 13:08 | 38.76527 | -9.13812 | 347 ft | 5 kts | 258° |
| 2026-04-16 13:08 | 38.76518 | -9.13875 | 347 ft | 9 kts | 264° |
| 2026-04-16 13:08 | 38.76543 | -9.13932 | 347 ft | 7 kts | 326° |
| 2026-04-16 13:09 | 38.76576 | -9.13985 | 345 ft | 11 kts | 272° |
| 2026-04-16 13:09 | 38.76548 | -9.14082 | 347 ft | 11 kts | 237° |
| 2026-04-16 13:09 | 38.76501 | -9.14149 | 345 ft | 9 kts | 237° |
| 2026-04-16 13:09 | 38.76515 | -9.14241 | 336 ft | 9 kts | 293° |
| 2026-04-16 13:10 | 38.76539 | -9.14311 | 337 ft | 0 kts | 293° |
| 2026-04-16 13:10 | 38.76540 | -9.14313 | 337 ft | 0 kts | 293° |
| 2026-04-16 13:11 | 38.76546 | -9.14331 | 337 ft | 6 kts | 293° |
| 2026-04-16 13:11 | 38.76565 | -9.14388 | 336 ft | 8 kts | 294° |
| 2026-04-16 13:11 | 38.76609 | -9.14407 | 333 ft | 8 kts | 19° |
| 2026-04-16 13:12 | 38.76633 | -9.14394 | 336 ft | 0 kts | 23° |
| 2026-04-16 13:12 | 38.76718 | -9.14348 | 335 ft | 44 kts | 22° |
| 2026-04-16 13:12 | 38.77220 | -9.14082 | 360 ft | 109 kts | 22° |
| 2026-04-16 13:13 | 38.78091 | -9.13623 | 368 ft | 160 kts | 22° |
| 2026-04-16 13:13 | 38.79178 | -9.13028 | 753 ft | 175 kts | 22° |
| 2026-04-16 13:13 | 38.80312 | -9.12407 | 1463 ft | 179 kts | 22° |
| 2026-04-16 13:13 | 38.81502 | -9.11749 | 1926 ft | 197 kts | 26° |
| 2026-04-16 13:14 | 38.82748 | -9.10781 | 2215 ft | 223 kts | 32° |
| 2026-04-16 13:14 | 38.84147 | -9.09680 | 2624 ft | 248 kts | 31° |
| 2026-04-16 13:14 | 38.85671 | -9.08508 | 3328 ft | 260 kts | 31° |
| 2026-04-16 13:14 | 38.87241 | -9.07304 | 4172 ft | 266 kts | 31° |
| 2026-04-16 13:15 | 38.88838 | -9.06077 | 5027 ft | 270 kts | 31° |
| 2026-04-16 13:15 | 38.90351 | -9.04632 | 5890 ft | 274 kts | 41° |
| 2026-04-16 13:15 | 38.91782 | -9.02981 | 6730 ft | 279 kts | 41° |
| 2026-04-16 13:15 | 38.93229 | -9.01292 | 7539 ft | 284 kts | 41° |
| 2026-04-16 13:16 | 38.94700 | -8.99564 | 8316 ft | 289 kts | 42° |
| 2026-04-16 13:16 | 38.96197 | -8.97809 | 9117 ft | 293 kts | 43° |
| 2026-04-16 13:16 | 38.97714 | -8.96035 | 9902 ft | 297 kts | 42° |
| 2026-04-16 13:16 | 38.99258 | -8.94229 | 10565 ft | 306 kts | 42° |
| 2026-04-16 13:17 | 39.00895 | -8.92315 | 10800 ft | 330 kts | 42° |
| 2026-04-16 13:17 | 39.02637 | -8.90276 | 11206 ft | 345 kts | 42° |
| 2026-04-16 13:17 | 39.04430 | -8.88178 | 11873 ft | 351 kts | 42° |
| 2026-04-16 13:17 | 39.06247 | -8.86052 | 12559 ft | 356 kts | 42° |
| 2026-04-16 13:18 | 39.08086 | -8.83901 | 13265 ft | 359 kts | 42° |
| 2026-04-16 13:18 | 39.09948 | -8.81723 | 13948 ft | 363 kts | 42° |
| 2026-04-16 13:18 | 39.11848 | -8.79497 | 14633 ft | 367 kts | 42° |
| 2026-04-16 13:18 | 39.13744 | -8.77271 | 15255 ft | 371 kts | 42° |
| 2026-04-16 13:19 | 39.15657 | -8.75022 | 15868 ft | 375 kts | 42° |
| 2026-04-16 13:19 | 39.17511 | -8.72639 | 16483 ft | 378 kts | 48° |
| 2026-04-16 13:19 | 39.19256 | -8.70082 | 17085 ft | 382 kts | 48° |
| 2026-04-16 13:19 | 39.21017 | -8.67502 | 17650 ft | 385 kts | 48° |
| 2026-04-16 13:20 | 39.22798 | -8.64891 | 18240 ft | 389 kts | 48° |
| 2026-04-16 13:20 | 39.24590 | -8.62261 | 18812 ft | 392 kts | 48° |
| 2026-04-16 13:20 | 39.26401 | -8.59607 | 19371 ft | 395 kts | 48° |
| 2026-04-16 13:20 | 39.28221 | -8.56938 | 19919 ft | 398 kts | 48° |
| 2026-04-16 13:21 | 39.30058 | -8.54239 | 20450 ft | 402 kts | 48° |
| 2026-04-16 13:21 | 39.31909 | -8.51516 | 20979 ft | 405 kts | 48° |
| 2026-04-16 13:21 | 39.33770 | -8.48774 | 21486 ft | 408 kts | 48° |
| 2026-04-16 13:21 | 39.35650 | -8.46004 | 21989 ft | 411 kts | 48° |
| 2026-04-16 13:22 | 39.37542 | -8.43217 | 22498 ft | 414 kts | 48° |
| 2026-04-16 13:22 | 39.39447 | -8.40408 | 22992 ft | 417 kts | 48° |
| 2026-04-16 13:22 | 39.41365 | -8.37574 | 23456 ft | 420 kts | 48° |
| 2026-04-16 13:22 | 39.43296 | -8.34714 | 23906 ft | 423 kts | 48° |
| 2026-04-16 13:23 | 39.45240 | -8.31835 | 24353 ft | 426 kts | 48° |
| 2026-04-16 13:23 | 39.47195 | -8.28940 | 24793 ft | 429 kts | 48° |
| 2026-04-16 13:23 | 39.49161 | -8.26026 | 25196 ft | 432 kts | 48° |
| 2026-04-16 13:23 | 39.51142 | -8.23089 | 25606 ft | 434 kts | 48° |
| 2026-04-16 13:24 | 39.53131 | -8.20137 | 25995 ft | 436 kts | 48° |
| 2026-04-16 13:24 | 39.55133 | -8.17167 | 26361 ft | 439 kts | 47° |
| 2026-04-16 13:24 | 39.57144 | -8.14183 | 26732 ft | 441 kts | 47° |
| 2026-04-16 13:24 | 39.59164 | -8.11177 | 27083 ft | 443 kts | 48° |
| 2026-04-16 13:25 | 39.61192 | -8.08146 | 27434 ft | 446 kts | 47° |
| 2026-04-16 13:25 | 39.63226 | -8.05101 | 27770 ft | 448 kts | 47° |
| 2026-04-16 13:25 | 39.65275 | -8.02033 | 28115 ft | 450 kts | 47° |
| 2026-04-16 13:25 | 39.67396 | -7.99030 | 28449 ft | 452 kts | 44° |
| 2026-04-16 13:26 | 39.69618 | -7.96140 | 28764 ft | 453 kts | 42° |
| 2026-04-16 13:26 | 39.71157 | -7.94234 | 28977 ft | 454 kts | 41° |
| 2026-04-16 13:26 | 39.73476 | -7.91436 | 29260 ft | 456 kts | 40° |
| 2026-04-16 13:26 | 39.75812 | -7.88628 | 29548 ft | 458 kts | 41° |
| 2026-04-16 13:27 | 39.78140 | -7.85788 | 29837 ft | 460 kts | 41° |
| 2026-04-16 13:27 | 39.80458 | -7.82905 | 30113 ft | 462 kts | 42° |
| 2026-04-16 13:27 | 39.82768 | -7.79986 | 30379 ft | 464 kts | 42° |
| 2026-04-16 13:27 | 39.85070 | -7.77046 | 30617 ft | 465 kts | 43° |
| 2026-04-16 13:28 | 39.87386 | -7.74084 | 30860 ft | 467 kts | 42° |
| 2026-04-16 13:28 | 39.89705 | -7.71122 | 31095 ft | 469 kts | 42° |
| 2026-04-16 13:28 | 39.92042 | -7.68146 | 31338 ft | 470 kts | 42° |
| 2026-04-16 13:28 | 39.94380 | -7.65173 | 31629 ft | 469 kts | 42° |
| 2026-04-16 13:29 | 39.96712 | -7.62204 | 31957 ft | 468 kts | 42° |
| 2026-04-16 13:29 | 39.99036 | -7.59243 | 32268 ft | 467 kts | 42° |
| 2026-04-16 13:29 | 40.01362 | -7.56276 | 32582 ft | 466 kts | 43° |
| 2026-04-16 13:29 | 40.03676 | -7.53324 | 32884 ft | 466 kts | 42° |
| 2026-04-16 13:30 | 40.05991 | -7.50370 | 33173 ft | 465 kts | 42° |
| 2026-04-16 13:30 | 40.08306 | -7.47415 | 33435 ft | 465 kts | 42° |
| 2026-04-16 13:30 | 40.10613 | -7.44462 | 33733 ft | 464 kts | 42° |
| 2026-04-16 13:30 | 40.12917 | -7.41507 | 34015 ft | 463 kts | 42° |
| 2026-04-16 13:31 | 40.15215 | -7.38555 | 34195 ft | 463 kts | 42° |
| 2026-04-16 13:31 | 40.19784 | -7.32683 | 34228 ft | 454 kts | 42° |
| 2026-04-16 13:32 | 40.24279 | -7.26900 | 34224 ft | 453 kts | 42° |
| 2026-04-16 13:32 | 40.28760 | -7.21122 | 34236 ft | 452 kts | 42° |
| 2026-04-16 13:33 | 40.33240 | -7.15338 | 34234 ft | 452 kts | 42° |
| 2026-04-16 13:33 | 40.37715 | -7.09549 | 34228 ft | 452 kts | 42° |
| 2026-04-16 13:34 | 40.42178 | -7.03741 | 34224 ft | 452 kts | 42° |
| 2026-04-16 13:34 | 40.46641 | -6.97922 | 34226 ft | 452 kts | 41° |
| 2026-04-16 13:35 | 40.51103 | -6.92111 | 34224 ft | 452 kts | 41° |
| 2026-04-16 13:35 | 40.55562 | -6.86299 | 34225 ft | 451 kts | 41° |
| 2026-04-16 13:36 | 40.60015 | -6.80484 | 34224 ft | 451 kts | 41° |
| 2026-04-16 13:36 | 40.64456 | -6.74660 | 34219 ft | 451 kts | 41° |
| 2026-04-16 13:37 | 40.68887 | -6.68826 | 34223 ft | 451 kts | 41° |
| 2026-04-16 13:37 | 40.73323 | -6.62988 | 34214 ft | 451 kts | 41° |
| 2026-04-16 13:38 | 40.77788 | -6.57105 | 34214 ft | 450 kts | 41° |
| 2026-04-16 13:38 | 40.82216 | -6.51260 | 34216 ft | 450 kts | 41° |
| 2026-04-16 13:39 | 40.86642 | -6.45407 | 34210 ft | 450 kts | 41° |
| 2026-04-16 13:39 | 40.91064 | -6.39546 | 34216 ft | 450 kts | 41° |
| 2026-04-16 13:40 | 40.95480 | -6.33673 | 34208 ft | 450 kts | 41° |
| 2026-04-16 13:40 | 40.99900 | -6.27811 | 34206 ft | 450 kts | 40° |
| 2026-04-16 13:41 | 41.04489 | -6.22200 | 34214 ft | 449 kts | 38° |
| 2026-04-16 13:41 | 41.09184 | -6.16760 | 34211 ft | 448 kts | 37° |
| 2026-04-16 13:42 | 41.13862 | -6.11284 | 34207 ft | 449 kts | 38° |
| 2026-04-16 13:42 | 41.18497 | -6.05719 | 34212 ft | 449 kts | 39° |
| 2026-04-16 13:43 | 41.23118 | -6.00135 | 34209 ft | 449 kts | 38° |
| 2026-04-16 13:43 | 41.27753 | -5.94564 | 34223 ft | 449 kts | 38° |
| 2026-04-16 13:44 | 41.32386 | -5.88988 | 34215 ft | 449 kts | 38° |
| 2026-04-16 13:44 | 41.37010 | -5.83409 | 34209 ft | 449 kts | 38° |
| 2026-04-16 13:45 | 41.41665 | -5.77779 | 34223 ft | 449 kts | 38° |
| 2026-04-16 13:45 | 41.46286 | -5.72173 | 34212 ft | 449 kts | 38° |
| 2026-04-16 13:46 | 41.51309 | -5.67413 | 34220 ft | 439 kts | 20° |
| 2026-04-16 13:46 | 41.57090 | -5.65283 | 34202 ft | 428 kts | 0° |
| 2026-04-16 13:47 | 41.62943 | -5.65704 | 34198 ft | 420 kts | 348° |
| 2026-04-16 13:47 | 41.68748 | -5.66732 | 34198 ft | 421 kts | 348° |
| 2026-04-16 13:48 | 41.74558 | -5.67755 | 34202 ft | 421 kts | 348° |
| 2026-04-16 13:48 | 41.80368 | -5.68784 | 34203 ft | 421 kts | 348° |
| 2026-04-16 13:49 | 41.86187 | -5.69809 | 34204 ft | 422 kts | 348° |
| 2026-04-16 13:49 | 41.92004 | -5.70831 | 34205 ft | 422 kts | 348° |
| 2026-04-16 13:50 | 41.97820 | -5.71871 | 34207 ft | 422 kts | 348° |
| 2026-04-16 13:50 | 42.03637 | -5.72907 | 34213 ft | 421 kts | 348° |
| 2026-04-16 13:51 | 42.09453 | -5.73941 | 34208 ft | 422 kts | 348° |
| 2026-04-16 13:51 | 42.15263 | -5.74995 | 34206 ft | 422 kts | 348° |
| 2026-04-16 13:52 | 42.21082 | -5.76048 | 34118 ft | 422 kts | 348° |
| 2026-04-16 13:52 | 42.23974 | -5.76565 | 33731 ft | 417 kts | 348° |
| 2026-04-16 13:52 | 42.26874 | -5.77084 | 33188 ft | 414 kts | 348° |
| 2026-04-16 13:52 | 42.29723 | -5.77595 | 32662 ft | 412 kts | 348° |
| 2026-04-16 13:53 | 42.32557 | -5.78104 | 32146 ft | 409 kts | 348° |
| 2026-04-16 13:53 | 42.35373 | -5.78613 | 31634 ft | 407 kts | 348° |
| 2026-04-16 13:53 | 42.38172 | -5.79115 | 31126 ft | 405 kts | 348° |
| 2026-04-16 13:53 | 42.40964 | -5.79616 | 30618 ft | 403 kts | 349° |
| 2026-04-16 13:54 | 42.43738 | -5.80116 | 30128 ft | 402 kts | 349° |
| 2026-04-16 13:54 | 42.46502 | -5.80615 | 29636 ft | 400 kts | 349° |
| 2026-04-16 13:54 | 42.49256 | -5.81113 | 29157 ft | 398 kts | 349° |
| 2026-04-16 13:54 | 42.51998 | -5.81611 | 28682 ft | 396 kts | 349° |
| 2026-04-16 13:55 | 42.54719 | -5.82105 | 28225 ft | 394 kts | 349° |
| 2026-04-16 13:55 | 42.57428 | -5.82597 | 27768 ft | 392 kts | 349° |
| 2026-04-16 13:55 | 42.60124 | -5.83085 | 27330 ft | 389 kts | 349° |
| 2026-04-16 13:55 | 42.62801 | -5.83569 | 26888 ft | 387 kts | 349° |
| 2026-04-16 13:56 | 42.65461 | -5.84052 | 26448 ft | 384 kts | 349° |
| 2026-04-16 13:56 | 42.68102 | -5.84531 | 26010 ft | 382 kts | 349° |
| 2026-04-16 13:56 | 42.70723 | -5.85008 | 25564 ft | 379 kts | 349° |
| 2026-04-16 13:56 | 42.73332 | -5.85482 | 25112 ft | 377 kts | 349° |
| 2026-04-16 13:57 | 42.75918 | -5.85954 | 24659 ft | 374 kts | 349° |
| 2026-04-16 13:57 | 42.78489 | -5.86428 | 24193 ft | 372 kts | 349° |
| 2026-04-16 13:57 | 42.81048 | -5.86901 | 23728 ft | 370 kts | 349° |
| 2026-04-16 13:58 | 42.86135 | -5.87835 | 22797 ft | 367 kts | 349° |
| 2026-04-16 13:58 | 42.88659 | -5.88285 | 22340 ft | 366 kts | 349° |
| 2026-04-16 13:58 | 42.91182 | -5.88711 | 21876 ft | 365 kts | 350° |
| 2026-04-16 13:58 | 42.93698 | -5.89126 | 21418 ft | 364 kts | 349° |
| 2026-04-16 13:59 | 42.96210 | -5.89538 | 20967 ft | 363 kts | 349° |
| 2026-04-16 13:59 | 42.98717 | -5.89952 | 20515 ft | 362 kts | 349° |
| 2026-04-16 13:59 | 43.01211 | -5.90369 | 20066 ft | 360 kts | 349° |
| 2026-04-16 13:59 | 43.02886 | -5.90651 | 19770 ft | 358 kts | 349° |
| 2026-04-16 14:00 | 43.05286 | -5.91396 | 19332 ft | 351 kts | 337° |
| 2026-04-16 14:00 | 43.07471 | -5.92786 | 18916 ft | 344 kts | 324° |
| 2026-04-16 14:00 | 43.09393 | -5.94702 | 18505 ft | 340 kts | 317° |
| 2026-04-16 14:00 | 43.11233 | -5.96714 | 18092 ft | 338 kts | 318° |
| 2026-04-16 14:01 | 43.13068 | -5.98718 | 17686 ft | 337 kts | 318° |
| 2026-04-16 14:01 | 43.14896 | -6.00712 | 17277 ft | 334 kts | 318° |
| 2026-04-16 14:01 | 43.16710 | -6.02692 | 16886 ft | 332 kts | 317° |
| 2026-04-16 14:01 | 43.18512 | -6.04660 | 16469 ft | 331 kts | 318° |
| 2026-04-16 14:02 | 43.20312 | -6.06625 | 16057 ft | 330 kts | 317° |
| 2026-04-16 14:02 | 43.22100 | -6.08580 | 15651 ft | 328 kts | 317° |
| 2026-04-16 14:02 | 43.23877 | -6.10526 | 15255 ft | 326 kts | 317° |
| 2026-04-16 14:02 | 43.25638 | -6.12464 | 14855 ft | 324 kts | 317° |
| 2026-04-16 14:03 | 43.27392 | -6.14404 | 14453 ft | 323 kts | 317° |
| 2026-04-16 14:03 | 43.29136 | -6.16336 | 14052 ft | 321 kts | 317° |
| 2026-04-16 14:03 | 43.30873 | -6.18253 | 13650 ft | 320 kts | 317° |
| 2026-04-16 14:03 | 43.32607 | -6.20165 | 13246 ft | 319 kts | 317° |
| 2026-04-16 14:04 | 43.34333 | -6.22070 | 12841 ft | 317 kts | 317° |
| 2026-04-16 14:04 | 43.36051 | -6.23966 | 12430 ft | 316 kts | 317° |
| 2026-04-16 14:04 | 43.37757 | -6.25848 | 12147 ft | 311 kts | 317° |
| 2026-04-16 14:04 | 43.39413 | -6.27672 | 11977 ft | 301 kts | 317° |
| 2026-04-16 14:05 | 43.41037 | -6.29466 | 11645 ft | 298 kts | 317° |
| 2026-04-16 14:05 | 43.42670 | -6.31273 | 11273 ft | 296 kts | 317° |
| 2026-04-16 14:05 | 43.44273 | -6.33048 | 10896 ft | 295 kts | 317° |
| 2026-04-16 14:05 | 43.45869 | -6.34820 | 10503 ft | 294 kts | 317° |
| 2026-04-16 14:06 | 43.47452 | -6.36578 | 9854 ft | 292 kts | 318° |
| 2026-04-16 14:06 | 43.49031 | -6.38329 | 9238 ft | 288 kts | 319° |
| 2026-04-16 14:06 | 43.50748 | -6.39675 | 8811 ft | 282 kts | 339° |
| 2026-04-16 14:06 | 43.52647 | -6.40168 | 8414 ft | 278 kts | 358° |
| 2026-04-16 14:07 | 43.54561 | -6.39792 | 7990 ft | 280 kts | 16° |
| 2026-04-16 14:07 | 43.56415 | -6.38976 | 7560 ft | 280 kts | 17° |
| 2026-04-16 14:07 | 43.58270 | -6.38154 | 7132 ft | 280 kts | 17° |
| 2026-04-16 14:07 | 43.60125 | -6.37331 | 6697 ft | 281 kts | 17° |
| 2026-04-16 14:08 | 43.61953 | -6.36370 | 6133 ft | 284 kts | 32° |
| 2026-04-16 14:08 | 43.63252 | -6.34386 | 5573 ft | 277 kts | 68° |
| 2026-04-16 14:08 | 43.63515 | -6.31865 | 5166 ft | 263 kts | 98° |
| 2026-04-16 14:08 | 43.63077 | -6.29429 | 4769 ft | 259 kts | 110° |
| 2026-04-16 14:09 | 43.62430 | -6.27167 | 4350 ft | 248 kts | 113° |
| 2026-04-16 14:09 | 43.61772 | -6.25020 | 3952 ft | 238 kts | 113° |
| 2026-04-16 14:09 | 43.61167 | -6.22951 | 3567 ft | 228 kts | 111° |
| 2026-04-16 14:09 | 43.60613 | -6.20934 | 3185 ft | 221 kts | 110° |
| 2026-04-16 14:10 | 43.60099 | -6.18967 | 2801 ft | 215 kts | 109° |
| 2026-04-16 14:10 | 43.59616 | -6.17041 | 2434 ft | 210 kts | 108° |
| 2026-04-16 14:10 | 43.59151 | -6.15158 | 2076 ft | 205 kts | 108° |
| 2026-04-16 14:10 | 43.58705 | -6.13325 | 1749 ft | 197 kts | 107° |
| 2026-04-16 14:11 | 43.58287 | -6.11590 | 1449 ft | 183 kts | 107° |
| 2026-04-16 14:11 | 43.57909 | -6.10010 | 1216 ft | 166 kts | 106° |
| 2026-04-16 14:11 | 43.57564 | -6.08575 | 1022 ft | 150 kts | 105° |
| 2026-04-16 14:11 | 43.57249 | -6.07255 | 814 ft | 142 kts | 106° |
| 2026-04-16 14:12 | 43.56945 | -6.05973 | 634 ft | 140 kts | 105° |
| 2026-04-16 14:12 | 43.56649 | -6.04698 | 432 ft | 140 kts | 105° |
| 2026-04-16 14:12 | 43.56380 | -6.03542 | 417 ft | 110 kts | 108° |
| 2026-04-16 14:12 | 43.56197 | -6.02774 | 417 ft | 61 kts | 108° |
| 2026-04-16 14:13 | 43.56104 | -6.02381 | 423 ft | 38 kts | 108° |
| 2026-04-16 14:13 | 43.56008 | -6.02219 | 425 ft | 18 kts | 197° |
| 2026-04-16 14:13 | 43.55951 | -6.02359 | 417 ft | 17 kts | 252° |
| 2026-04-16 14:13 | 43.55970 | -6.02527 | 423 ft | 19 kts | 288° |
| 2026-04-16 14:14 | 43.56014 | -6.02708 | 418 ft | 21 kts | 289° |
| 2026-04-16 14:14 | 43.56058 | -6.02906 | 421 ft | 22 kts | 287° |
| 2026-04-16 14:14 | 43.56106 | -6.03105 | 418 ft | 22 kts | 289° |
| 2026-04-16 14:14 | 43.56080 | -6.03225 | 417 ft | 11 kts | 195° |
| 2026-04-16 14:15 | 43.56024 | -6.03253 | 426 ft | 7 kts | 223° |
| 2026-04-16 14:15 | 43.56012 | -6.03278 | 426 ft | 0 kts | 238° |